Time;durP1;ratioP1;P1;durP2;ratioP2;P2;SDS_P1;SDS_P2;PMS_P1;PMS_P2;Temp;Humidity;BMP_temperature;BMP_pressure;BME280_temperature;BME280_humidity;BME280_pressure;Samples;Min_cycle;Max_cycle;Signal;HPM_P1;HPM_P2
2023/04/27 00:02:28;;;;;;;0.68;0.68;;;;;;;2.03;77.49;99405.97;4164310;34;33966;-75
2023/04/27 00:04:56;;;;;;;0.65;0.65;;;;;;;1.77;79.79;99402.75;4164297;34;34942;-75
2023/04/27 00:07:25;;;;;;;0.90;0.90;;;;;;;2.80;74.59;99405.16;4164331;34;34381;-75
2023/04/27 00:09:53;;;;;;;0.77;0.77;;;;;;;2.74;74.47;99406.75;4164230;34;34270;-75
2023/04/27 00:12:21;;;;;;;0.68;0.68;;;;;;;2.91;73.02;99407.09;4164251;34;33900;-75
2023/04/27 00:14:49;;;;;;;0.62;0.62;;;;;;;2.62;75.43;99404.75;4163169;34;34998;-75
2023/04/27 00:17:17;;;;;;;0.93;0.93;;;;;;;2.30;75.32;99410.03;4164132;34;35188;-74
2023/04/27 00:19:46;;;;;;;2.33;2.17;;;;;;;2.41;75.54;99406.00;4164090;34;33551;-75
2023/04/27 00:22:14;;;;;;;1.00;1.00;;;;;;;2.74;73.08;99399.87;4164142;34;34011;-75
2023/04/27 00:24:42;;;;;;;0.60;0.60;;;;;;;3.25;70.20;99405.19;4164161;34;34943;-75
2023/04/27 00:27:12;;;;;;;0.60;0.60;;;;;;;3.63;69.51;99405.06;4164065;34;34554;-75
2023/04/27 00:29:41;;;;;;;0.50;0.50;;;;;;;3.45;69.41;99400.44;4164156;34;34559;-74
2023/04/27 00:32:10;;;;;;;0.70;0.70;;;;;;;3.06;70.90;99394.53;4164080;34;34540;-75
2023/04/27 00:34:38;;;;;;;0.80;0.80;;;;;;;3.08;71.12;99410.88;4151812;34;35064;-75
2023/04/27 00:37:06;;;;;;;0.80;0.80;;;;;;;3.17;69.79;99405.91;4164041;34;34512;-74
2023/04/27 00:39:35;;;;;;;0.60;0.60;;;;;;;3.34;70.24;99400.25;4163865;34;33585;-75
2023/04/27 00:42:03;;;;;;;0.70;0.70;;;;;;;3.21;70.18;99406.84;4151867;34;34844;-75
2023/04/27 00:44:31;;;;;;;0.60;0.60;;;;;;;2.77;73.08;99410.25;4163925;34;34947;-75
2023/04/27 00:46:59;;;;;;;0.70;0.70;;;;;;;3.10;72.71;99408.34;4151738;34;33818;-75
2023/04/27 00:49:27;;;;;;;0.85;0.85;;;;;;;2.76;74.57;99402.50;4163902;34;33351;-75
2023/04/27 00:51:56;;;;;;;0.60;0.60;;;;;;;2.62;74.40;99405.63;4163849;34;33947;-75
2023/04/27 00:54:24;;;;;;;0.80;0.80;;;;;;;2.66;73.18;99406.56;4151542;34;35038;-75
2023/04/27 00:56:53;;;;;;;0.70;0.70;;;;;;;2.77;73.73;99405.09;4164249;34;34609;-75
2023/04/27 00:59:21;;;;;;;0.70;0.70;;;;;;;2.14;77.38;99402.81;4165564;34;33377;-75
2023/04/27 01:01:52;;;;;;;0.60;0.60;;;;;;;2.26;76.31;99397.97;4165438;34;33906;-74
2023/04/27 01:04:20;;;;;;;0.60;0.60;;;;;;;2.49;75.39;99398.47;4165479;34;35274;-75
2023/04/27 01:06:48;;;;;;;0.70;0.70;;;;;;;2.51;73.13;99393.38;4165367;34;34499;-75
2023/04/27 01:09:18;;;;;;;0.70;0.70;;;;;;;1.99;76.73;99401.56;4153318;34;33470;-74
2023/04/27 01:11:49;;;;;;;1.42;1.42;;;;;;;1.84;77.85;99398.66;4165455;34;34013;-75
2023/04/27 01:14:17;;;;;;;0.70;0.70;;;;;;;1.42;81.03;99401.84;4153163;34;35769;-74
2023/04/27 01:16:45;;;;;;;0.77;0.77;;;;;;;1.63;78.44;99404.97;4165303;34;34596;-74
2023/04/27 01:19:14;;;;;;;0.70;0.70;;;;;;;2.73;74.24;99405.84;4165365;34;33786;-75
2023/04/27 01:21:42;;;;;;;0.70;0.70;;;;;;;1.78;77.86;99403.59;4164405;34;33419;-74
2023/04/27 01:24:10;;;;;;;0.70;0.70;;;;;;;1.62;79.44;99413.47;4165341;34;35042;-75
2023/04/27 01:26:38;;;;;;;0.70;0.70;;;;;;;2.06;75.77;99406.03;4165569;34;34644;-75
2023/04/27 01:29:07;;;;;;;0.70;0.70;;;;;;;1.68;79.04;99411.09;4165360;34;33619;-75
2023/04/27 01:31:35;;;;;;;0.70;0.70;;;;;;;1.17;81.53;99402.88;4165256;34;33885;-75
2023/04/27 01:34:03;;;;;;;0.70;0.70;;;;;;;2.23;77.21;99408.16;4165227;34;35040;-75
2023/04/27 01:36:31;;;;;;;0.73;0.73;;;;;;;2.43;74.77;99409.47;4164053;34;35007;-75
2023/04/27 01:38:59;;;;;;;0.75;0.75;;;;;;;2.26;76.15;99411.66;4165568;34;33934;-75
2023/04/27 01:41:27;;;;;;;0.70;0.70;;;;;;;1.70;79.44;99411.97;4165208;34;34669;-75
2023/04/27 01:43:55;;;;;;;0.70;0.70;;;;;;;1.77;78.86;99420.72;4165320;34;35048;-75
2023/04/27 01:46:23;;;;;;;0.80;0.80;;;;;;;2.33;77.48;99428.09;4165239;34;35280;-75
2023/04/27 01:48:52;;;;;;;1.20;1.20;;;;;;;2.31;76.32;99423.75;4165239;34;34408;-75
2023/04/27 01:51:20;;;;;;;0.80;0.80;;;;;;;2.34;76.33;99423.81;4165307;34;33916;-75
2023/04/27 01:53:48;;;;;;;0.70;0.70;;;;;;;2.20;77.33;99420.91;4152987;34;35487;-75
2023/04/27 01:56:17;;;;;;;0.70;0.70;;;;;;;2.70;74.46;99417.78;4153214;34;34642;-74
2023/04/27 01:58:45;;;;;;;0.75;0.75;;;;;;;2.66;74.58;99421.97;4152953;34;33679;-74
2023/04/27 02:01:13;;;;;;;0.70;0.70;;;;;;;1.62;79.43;99425.44;4165083;34;34097;-75
2023/04/27 02:03:41;;;;;;;1.83;1.77;;;;;;;2.16;77.79;99429.37;4152992;34;35924;-75
2023/04/27 02:06:09;;;;;;;0.80;0.80;;;;;;;1.39;80.77;99422.25;4165043;34;35135;-75
2023/04/27 02:08:38;;;;;;;0.80;0.80;;;;;;;0.90;83.59;99427.75;4152939;34;33679;-75
2023/04/27 02:11:08;;;;;;;0.70;0.70;;;;;;;1.10;83.46;99430.03;4164022;34;34100;-74
2023/04/27 02:13:36;;;;;;;0.70;0.70;;;;;;;0.98;84.47;99427.09;4152818;34;35234;-75
2023/04/27 02:16:05;;;;;;;0.70;0.70;;;;;;;1.65;81.73;99436.66;4153185;34;35311;-75
2023/04/27 02:18:33;;;;;;;0.70;0.70;;;;;;;2.07;77.82;99436.03;4152666;34;34275;-75
2023/04/27 02:21:07;;;;;;;0.70;0.70;;;;;;;1.39;80.35;99435.94;4165078;34;34603;-75
2023/04/27 02:23:36;;;;;;;0.70;0.70;;;;;;;1.22;81.65;99434.59;4164997;34;35963;-75
2023/04/27 02:26:04;;;;;;;0.70;0.70;;;;;;;1.65;80.70;99440.94;4164934;34;34599;-75
2023/04/27 02:28:32;;;;;;;0.70;0.70;;;;;;;1.69;78.49;99433.38;4152704;34;32609;-75
2023/04/27 02:31:01;;;;;;;0.70;0.70;;;;;;;1.66;78.55;99437.53;4164995;34;34760;-75
2023/04/27 02:33:30;;;;;;;0.90;0.90;;;;;;;1.57;79.03;99448.44;4164921;34;35034;-74
2023/04/27 02:35:58;;;;;;;1.15;1.15;;;;;;;1.64;79.25;99434.94;4164906;34;35235;-75
2023/04/27 02:38:29;;;;;;;0.90;0.90;;;;;;;1.91;78.74;99444.19;4165005;34;34249;-75
2023/04/27 02:40:57;;;;;;;0.70;0.70;;;;;;;2.21;77.76;99448.34;4163881;34;33774;-75
2023/04/27 02:43:25;;;;;;;0.80;0.80;;;;;;;2.92;75.23;99449.97;4152661;34;34947;-75
2023/04/27 02:45:53;;;;;;;2.28;2.15;;;;;;;3.42;73.08;99452.72;4164878;34;34488;-74
2023/04/27 02:48:21;;;;;;;0.60;0.60;;;;;;;3.38;71.38;99448.34;4164881;34;33558;-75
2023/04/27 02:50:49;;;;;;;0.75;0.75;;;;;;;3.51;70.24;99454.59;4164801;34;33894;-75
2023/04/27 02:53:17;;;;;;;0.60;0.60;;;;;;;3.52;69.77;99449.50;4164789;34;35077;-75
2023/04/27 02:55:50;;;;;;;0.68;0.68;;;;;;;3.94;68.48;99452.84;4164703;34;34607;-75
2023/04/27 02:58:18;;;;;;;1.70;1.60;;;;;;;4.24;67.12;99452.50;4152936;34;33711;-74
2023/04/27 03:00:47;;;;;;;0.70;0.70;;;;;;;4.03;67.47;99455.56;4163905;34;34005;-74
2023/04/27 03:03:15;;;;;;;0.60;0.60;;;;;;;4.29;65.89;99461.19;4164695;34;36045;-75
2023/04/27 03:05:45;;;;;;;0.60;0.60;;;;;;;4.37;65.73;99459.56;4164687;34;34331;-74
2023/04/27 03:08:13;;;;;;;1.08;1.08;;;;;;;4.49;65.15;99463.22;4164698;34;33352;-75
2023/04/27 03:10:41;;;;;;;1.48;1.25;;;;;;;4.59;65.02;99459.94;4163671;34;33914;-75
2023/04/27 03:13:09;;;;;;;0.60;0.60;;;;;;;4.58;65.33;99468.50;4164723;34;35875;-75
2023/04/27 03:15:38;;;;;;;0.65;0.65;;;;;;;4.46;65.10;99474.31;4152520;34;34472;-74
2023/04/27 03:18:05;;;;;;;0.82;0.82;;;;;;;4.45;65.17;99471.75;4152325;34;34301;-74
2023/04/27 03:20:33;;;;;;;0.60;0.60;;;;;;;4.81;64.32;99470.56;4163385;34;33895;-75
2023/04/27 03:23:02;;;;;;;0.60;0.60;;;;;;;4.24;66.09;99473.13;4152533;34;35843;-74
2023/04/27 03:25:30;;;;;;;0.50;0.50;;;;;;;4.22;66.11;99479.97;4164662;34;34593;-74
2023/04/27 03:27:58;;;;;;;1.05;1.05;;;;;;;4.00;67.34;99463.25;4164657;34;34208;-75
2023/04/27 03:30:26;;;;;;;0.75;0.75;;;;;;;4.20;66.61;99476.50;4164559;34;33802;-75
2023/04/27 03:32:55;;;;;;;0.60;0.60;;;;;;;3.86;67.87;99473.31;4164597;34;36031;-75
2023/04/27 03:35:23;;;;;;;0.70;0.70;;;;;;;3.85;67.94;99479.31;4152124;34;33752;-74
2023/04/27 03:37:52;;;;;;;0.60;0.60;;;;;;;3.65;68.81;99483.19;4164526;34;33505;-75
2023/04/27 03:40:20;;;;;;;0.85;0.77;;;;;;;3.59;69.01;99486.53;4152616;34;34644;-75
2023/04/27 03:42:48;;;;;;;0.60;0.60;;;;;;;4.14;66.80;99491.84;4164594;34;35126;-75
2023/04/27 03:45:18;;;;;;;0.60;0.60;;;;;;;4.20;67.09;99493.66;4164715;34;35237;-74
2023/04/27 03:47:45;;;;;;;0.50;0.50;;;;;;;3.97;67.85;99488.94;4164461;34;33631;-75
2023/04/27 03:50:15;;;;;;;1.23;1.12;;;;;;;4.13;67.69;99495.25;4164801;34;34841;-74
2023/04/27 03:52:43;;;;;;;0.50;0.50;;;;;;;4.17;67.16;99495.34;4163374;34;35170;-74
2023/04/27 03:55:11;;;;;;;0.50;0.50;;;;;;;4.31;66.66;99498.16;4164738;34;34654;-74
2023/04/27 03:57:40;;;;;;;0.52;0.52;;;;;;;4.14;67.69;99499.56;4164636;34;33357;-74
2023/04/27 04:00:11;;;;;;;0.70;0.70;;;;;;;4.32;67.10;99496.44;4164762;34;34032;-74
2023/04/27 04:02:39;;;;;;;0.70;0.70;;;;;;;4.21;67.20;99497.97;4164405;34;35338;-74
2023/04/27 04:05:08;;;;;;;0.70;0.70;;;;;;;4.26;66.83;99499.78;4152520;34;34618;-75
2023/04/27 04:07:36;;;;;;;0.60;0.60;;;;;;;4.30;66.93;99496.41;4164428;34;34356;-74
2023/04/27 04:10:05;;;;;;;0.60;0.60;;;;;;;4.30;66.98;99498.97;4164444;34;32636;-75
2023/04/27 04:12:33;;;;;;;0.60;0.60;;;;;;;4.43;67.06;99504.34;4164246;34;35039;-75
2023/04/27 04:15:02;;;;;;;0.50;0.50;;;;;;;4.91;66.06;99509.41;4164421;34;34478;-75
2023/04/27 04:17:32;;;;;;;0.50;0.50;;;;;;;5.38;64.54;99513.50;4164246;34;34364;-75
2023/04/27 04:20:05;;;;;;;0.50;0.50;;;;;;;6.55;60.28;99516.50;4164343;34;33119;-75
2023/04/27 04:22:33;;;;;;;1.30;1.25;;;;;;;7.41;57.83;99517.03;4164297;34;34980;-75
2023/04/27 04:25:03;;;;;;;0.50;0.50;;;;;;;7.40;57.05;99518.78;4164440;34;35315;-75
2023/04/27 04:27:32;;;;;;;0.50;0.50;;;;;;;7.98;55.77;99514.69;4164115;34;33505;-76
2023/04/27 04:30:03;;;;;;;0.73;0.73;;;;;;;8.44;54.64;99519.13;4152085;34;33992;-75
2023/04/27 04:32:32;;;;;;;0.50;0.50;;;;;;;8.84;53.76;99520.00;4152035;34;35897;-75
2023/04/27 04:35:01;;;;;;;0.50;0.50;;;;;;;8.44;53.56;99525.16;4163244;34;34462;-75
2023/04/27 04:37:29;;;;;;;0.50;0.50;;;;;;;9.03;52.75;99522.53;4163948;34;33812;-74
2023/04/27 04:39:57;;;;;;;3.60;1.52;;;;;;;8.64;52.94;99516.53;4163978;34;33934;-75
2023/04/27 04:42:26;;;;;;;0.73;0.73;;;;;;;8.89;53.04;99522.56;4164168;34;35085;-74
2023/04/27 04:44:54;;;;;;;0.70;0.68;;;;;;;8.47;53.53;99522.59;4163975;34;35162;-75
2023/04/27 04:47:22;;;;;;;0.60;0.60;;;;;;;8.64;53.90;99524.31;4151722;34;33481;-75
2023/04/27 04:49:51;;;;;;;0.50;0.50;;;;;;;8.90;53.81;99530.34;4164073;34;33925;-75
2023/04/27 04:52:20;;;;;;;8.15;1.02;;;;;;;9.01;53.89;99532.09;4164209;34;35065;-74
2023/04/27 04:54:52;;;;;;;0.70;0.70;;;;;;;9.03;53.85;99535.53;4163606;34;34630;-75
2023/04/27 04:57:21;;;;;;;0.40;0.40;;;;;;;9.77;53.30;99535.31;4164162;34;33411;-75
2023/04/27 04:59:49;;;;;;;0.60;0.60;;;;;;;10.39;52.52;99536.75;4163998;34;33838;-75
2023/04/27 05:02:17;;;;;;;1.62;0.90;;;;;;;10.97;50.40;99544.97;4151485;34;35002;-75
2023/04/27 05:04:45;;;;;;;0.40;0.40;;;;;;;10.94;49.90;99529.34;4140320;34;33771;-75
2023/04/27 05:07:14;;;;;;;0.40;0.40;;;;;;;10.19;52.07;99529.03;4151537;34;34457;-75
2023/04/27 05:09:45;;;;;;;0.40;0.40;;;;;;;9.87;51.97;99534.41;4163900;34;34052;-75
2023/04/27 05:12:13;;;;;;;2.10;0.98;;;;;;;9.96;52.10;99536.97;4151211;34;33982;-75
2023/04/27 05:14:42;;;;;;;0.70;0.70;;;;;;;10.25;51.50;99538.53;4162457;34;35324;-75
2023/04/27 05:17:11;;;;;;;0.85;0.85;;;;;;;10.02;51.46;99542.16;4163801;34;34215;-75
2023/04/27 05:19:39;;;;;;;0.40;0.40;;;;;;;10.37;51.35;99543.69;4151110;34;34214;-74
2023/04/27 05:22:07;;;;;;;0.60;0.55;;;;;;;10.70;49.44;99540.88;4151241;34;34929;-75
2023/04/27 05:24:35;;;;;;;0.55;0.55;;;;;;;11.15;49.55;99552.63;4163427;34;35239;-75
2023/04/27 05:27:03;;;;;;;0.40;0.40;;;;;;;10.72;48.75;99550.38;4162339;34;34464;-75
2023/04/27 05:29:32;;;;;;;0.55;0.55;;;;;;;10.73;48.39;99552.13;4163320;34;34948;-75
2023/04/27 05:32:00;;;;;;;4.28;1.48;;;;;;;10.92;49.25;99558.03;4163409;34;35049;-75
2023/04/27 05:34:28;;;;;;;0.65;0.65;;;;;;;11.67;48.59;99558.16;4163294;34;33976;-75
2023/04/27 05:36:56;;;;;;;0.60;0.60;;;;;;;11.89;46.02;99543.94;4163398;34;34254;-74
2023/04/27 05:39:25;;;;;;;0.50;0.50;;;;;;;11.56;46.49;99550.47;4150925;34;34737;-75
2023/04/27 05:41:53;;;;;;;0.40;0.40;;;;;;;11.87;44.70;99550.94;4151025;34;35116;-75
2023/04/27 05:44:21;;;;;;;0.40;0.40;;;;;;;12.14;47.16;99557.59;4164349;34;34540;-74
2023/04/27 05:46:49;;;;;;;0.50;0.50;;;;;;;12.28;45.24;99557.41;4165319;34;34326;-75
2023/04/27 05:49:17;;;;;;;0.60;0.60;;;;;;;12.13;43.56;99558.47;4165205;34;34027;-75
2023/04/27 05:51:46;;;;;;;0.70;0.70;;;;;;;12.05;43.74;99565.56;4165124;34;34861;-75
2023/04/27 05:54:14;;;;;;;0.80;0.80;;;;;;;12.22;43.81;99565.31;4165189;34;35345;-75
2023/04/27 05:56:42;;;;;;;0.40;0.40;;;;;;;13.39;42.66;99575.66;4141751;34;32753;-75
2023/04/27 05:59:10;;;;;;;0.57;0.57;;;;;;;12.76;43.30;99579.31;4163797;34;33948;-76
2023/04/27 06:01:39;;;;;;;0.40;0.40;;;;;;;12.59;43.91;99577.84;4165301;34;35898;-76
2023/04/27 06:04:07;;;;;;;0.52;0.52;;;;;;;13.14;41.74;99580.44;4164870;34;34617;-75
2023/04/27 06:06:35;;;;;;;0.82;0.82;;;;;;;13.47;39.84;99576.38;4152765;34;33559;-76
2023/04/27 06:09:03;;;;;;;0.93;0.93;;;;;;;14.48;38.16;99576.03;4152558;34;33998;-75
2023/04/27 06:11:32;;;;;;;0.68;0.68;;;;;;;13.38;43.51;99580.03;4152623;34;35202;-75
2023/04/27 06:14:00;;;;;;;0.40;0.40;;;;;;;14.15;41.50;99578.53;4165023;34;34552;-76
2023/04/27 06:16:28;;;;;;;0.73;0.73;;;;;;;14.79;38.63;99580.59;4165000;34;34435;-75
2023/04/27 06:18:56;;;;;;;0.30;0.30;;;;;;;14.29;39.65;99583.44;4159120;34;33939;-75
2023/04/27 06:21:25;;;;;;;0.37;0.37;;;;;;;14.34;36.10;99584.19;4150462;34;35858;-76
2023/04/27 06:23:53;;;;;;;0.30;0.30;;;;;;;14.71;36.03;99588.63;4150524;34;34531;-80
2023/04/27 06:26:21;;;;;;;0.55;0.55;;;;;;;14.86;35.01;99587.41;4149206;34;33036;-76
2023/04/27 06:28:49;;;;;;;0.20;0.20;;;;;;;16.01;34.12;99580.88;4149265;34;34758;-75
2023/04/27 06:31:17;;;;;;;0.52;0.52;;;;;;;16.77;32.98;99582.06;4150354;34;35072;-74
2023/04/27 06:33:46;;;;;;;0.55;0.45;;;;;;;16.24;31.09;99588.06;4150343;34;34672;-74
2023/04/27 06:36:15;;;;;;;0.20;0.20;;;;;;;14.09;37.83;99583.03;4150594;34;33489;-74
2023/04/27 06:38:43;;;;;;;1.52;1.40;;;;;;;16.21;32.00;99582.06;4150324;34;34114;-74
2023/04/27 06:41:11;;;;;;;0.40;0.40;;;;;;;17.15;31.39;99577.31;4150400;34;35976;-74
2023/04/27 06:43:39;;;;;;;0.22;0.22;;;;;;;14.73;33.05;99578.09;4150371;34;35121;-74
2023/04/27 06:46:07;;;;;;;0.40;0.32;;;;;;;16.72;28.31;99580.50;4151718;34;33410;-74
2023/04/27 06:48:36;;;;;;;0.20;0.20;;;;;;;17.50;27.53;99583.13;4144872;34;32442;-74
2023/04/27 06:51:04;;;;;;;0.55;0.55;;;;;;;17.26;28.44;99595.41;4150398;34;36048;-74
2023/04/27 06:53:32;;;;;;;0.43;0.43;;;;;;;16.75;29.34;99593.56;4149720;34;34312;-74
2023/04/27 06:56:01;;;;;;;0.25;0.25;;;;;;;15.29;32.03;99596.81;4150644;34;33336;-74
2023/04/27 06:58:29;;;;;;;0.47;0.47;;;;;;;17.06;27.68;99603.94;4155460;34;34895;-74
2023/04/27 07:00:57;;;;;;;0.28;0.28;;;;;;;17.21;27.28;99599.97;4156994;34;35158;-75
2023/04/27 07:03:25;;;;;;;0.20;0.20;;;;;;;16.27;29.47;99597.63;4157124;34;35259;-74
2023/04/27 07:05:55;;;;;;;0.55;0.52;;;;;;;17.84;27.47;99603.00;4155423;34;32476;-73
2023/04/27 07:08:23;;;;;;;0.40;0.40;;;;;;;15.23;29.99;99601.34;4155584;34;34065;-74
2023/04/27 07:10:51;;;;;;;0.32;0.32;;;;;;;17.43;25.53;99602.69;4159618;34;35067;-74
2023/04/27 07:13:20;;;;;;;0.57;0.57;;;;;;;17.59;27.39;99603.03;4163770;34;34598;-75
2023/04/27 07:15:53;;;;;;;3.25;1.65;;;;;;;16.31;29.28;99599.28;4162480;34;34427;-74
2023/04/27 07:18:22;;;;;;;0.60;0.60;;;;;;;17.40;28.98;99608.06;4162134;34;34890;-73
2023/04/27 07:20:50;;;;;;;1.75;1.10;;;;;;;17.87;26.83;99607.34;4160436;34;34939;-74
2023/04/27 07:23:18;;;;;;;0.30;0.30;;;;;;;16.71;30.19;99600.66;4163471;34;34775;-74
2023/04/27 07:25:47;;;;;;;0.30;0.30;;;;;;;17.71;25.35;99607.00;4163424;34;33057;-74
2023/04/27 07:28:15;;;;;;;0.52;0.52;;;;;;;17.58;27.78;99612.69;4157140;34;33882;-74
2023/04/27 07:30:43;;;;;;;0.85;0.70;;;;;;;17.35;29.80;99610.03;4157155;34;35997;-74
2023/04/27 07:33:12;;;;;;;0.30;0.30;;;;;;;17.52;29.48;99618.16;4162360;34;34430;-74
2023/04/27 07:35:40;;;;;;;0.50;0.50;;;;;;;17.21;31.29;99613.97;4162157;34;34366;-74
2023/04/27 07:38:08;;;;;;;0.20;0.20;;;;;;;16.93;30.22;99607.91;4151250;34;34015;-73
2023/04/27 07:40:37;;;;;;;0.40;0.40;;;;;;;16.26;31.35;99612.53;4163310;34;34951;-74
2023/04/27 07:43:05;;;;;;;0.52;0.50;;;;;;;14.59;33.07;99610.75;4163463;34;34493;-74
2023/04/27 07:45:33;;;;;;;0.30;0.30;;;;;;;14.61;34.40;99610.69;4163339;34;33422;-74
2023/04/27 07:48:01;;;;;;;0.73;0.73;;;;;;;13.90;36.00;99613.94;4162275;34;33948;-74
2023/04/27 07:50:30;;;;;;;0.40;0.35;;;;;;;13.93;35.32;99616.50;4162332;34;36033;-74
2023/04/27 07:52:59;;;;;;;0.22;0.22;;;;;;;15.58;32.16;99608.28;4151137;34;34574;-74
2023/04/27 07:55:27;;;;;;;0.30;0.30;;;;;;;15.68;31.32;99609.78;4153760;34;33687;-74
2023/04/27 07:57:56;;;;;;;0.65;0.65;;;;;;;15.69;31.27;99616.75;4163272;34;33513;-74
2023/04/27 08:00:25;;;;;;;0.20;0.20;;;;;;;17.10;30.40;99610.84;4150862;34;36043;-73
2023/04/27 08:02:54;;;;;;;0.30;0.30;;;;;;;16.15;34.95;99608.50;4151126;34;34648;-74
2023/04/27 08:05:23;;;;;;;0.70;0.70;;;;;;;16.15;33.63;99605.88;4151045;34;32723;-74
2023/04/27 08:07:52;;;;;;;0.30;0.30;;;;;;;15.81;32.37;99607.72;4151985;34;34032;-74
2023/04/27 08:10:22;;;;;;;0.20;0.20;;;;;;;15.98;34.56;99612.47;4154898;34;35085;-74
2023/04/27 08:12:50;;;;;;;0.30;0.30;;;;;;;17.37;29.47;99613.44;4161998;34;34536;-74
2023/04/27 08:15:20;;;;;;;0.20;0.20;;;;;;;17.86;29.39;99611.75;4159084;34;34204;-73
2023/04/27 08:17:50;;;;;;;0.47;0.47;;;;;;;17.32;29.74;99612.75;4166746;34;33246;-74
2023/04/27 08:20:18;;;;;;;1.30;1.15;;;;;;;17.53;32.21;99619.06;4145502;34;34415;-74
2023/04/27 08:22:46;;;;;;;0.30;0.30;;;;;;;18.30;30.93;99611.87;4160239;34;34648;-74
2023/04/27 08:25:14;;;;;;;0.20;0.20;;;;;;;17.71;30.99;99607.00;4156049;34;33397;-74
2023/04/27 08:27:42;;;;;;;0.20;0.20;;;;;;;17.79;30.84;99616.34;4163265;34;34581;-77
2023/04/27 08:30:11;;;;;;;0.50;0.50;;;;;;;19.26;27.36;99613.37;4162901;34;35948;-75
2023/04/27 08:32:39;;;;;;;0.80;0.77;;;;;;;17.50;30.53;99613.88;4161812;34;35091;-73
2023/04/27 08:35:08;;;;;;;0.37;0.37;;;;;;;17.38;29.78;99616.03;4162562;34;33459;-74
2023/04/27 08:37:36;;;;;;;0.73;0.73;;;;;;;18.03;30.04;99612.91;4162541;34;34699;-73
2023/04/27 08:40:08;;;;;;;0.40;0.40;;;;;;;18.42;28.06;99623.72;4161423;34;35980;-73
2023/04/27 08:42:37;;;;;;;0.45;0.45;;;;;;;17.75;31.18;99624.41;4162815;34;34484;-73
2023/04/27 08:45:07;;;;;;;0.20;0.20;;;;;;;17.83;32.21;99622.38;4161671;34;33806;-74
2023/04/27 08:47:37;;;;;;;0.68;0.68;;;;;;;17.52;31.49;99626.06;4160240;34;33979;-73
2023/04/27 08:50:11;;;;;;;0.28;0.28;;;;;;;19.37;27.99;99610.28;4139136;34;35278;-73
2023/04/27 08:52:39;;;;;;;0.20;0.20;;;;;;;18.06;28.56;99618.91;4158968;34;34563;-73
2023/04/27 08:55:08;;;;;;;0.55;0.55;;;;;;;18.45;30.64;99620.97;4150217;34;33349;-74
2023/04/27 08:57:36;;;;;;;0.37;0.37;;;;;;;18.38;29.53;99609.78;4162330;34;34537;-73
2023/04/27 09:00:12;;;;;;;0.20;0.20;;;;;;;19.07;26.62;99614.13;4162254;34;35206;-74
2023/04/27 09:02:45;;;;;;;0.20;0.20;;;;;;;18.63;28.21;99608.81;4163170;34;34122;-73
2023/04/27 09:05:21;;;;;;;1.00;1.00;;;;;;;18.56;29.30;99610.00;4162314;34;34356;-74
2023/04/27 09:08:01;;;;;;;3.45;1.50;;;;;;;19.52;24.95;99599.06;4162254;34;33905;-73
2023/04/27 09:10:32;;;;;;;0.40;0.40;;;;;;;20.18;26.07;99598.75;4162367;34;35175;-73
2023/04/27 09:13:00;;;;;;;0.15;0.15;;;;;;;19.59;25.42;99592.56;4161679;34;34469;-73
2023/04/27 09:15:29;;;;;;;0.88;0.82;;;;;;;18.48;29.57;99597.13;4162228;34;33475;-73
2023/04/27 09:17:57;;;;;;;0.45;0.45;;;;;;;19.56;23.68;99594.50;4163379;34;33606;-74
2023/04/27 09:20:26;;;;;;;0.25;0.25;;;;;;;18.28;22.77;99594.38;4163708;34;34606;-73
2023/04/27 09:22:56;;;;;;;0.35;0.35;;;;;;;19.04;26.66;99600.19;4165200;34;34581;-73
2023/04/27 09:25:32;;;;;;;1.67;1.00;;;;;;;19.21;26.41;99597.72;4165417;34;34329;-73
2023/04/27 09:28:00;;;;;;;0.20;0.20;;;;;;;18.94;28.41;99591.81;4165135;34;34047;-74
2023/04/27 09:30:29;;;;;;;1.60;0.93;;;;;;;19.12;25.94;99592.81;4163938;34;35154;-73
2023/04/27 09:33:02;;;;;;;0.20;0.20;;;;;;;20.09;26.11;99588.59;4165017;34;34567;-73
2023/04/27 09:35:31;;;;;;;0.57;0.57;;;;;;;20.19;25.86;99589.91;4164035;34;33544;-74
2023/04/27 09:38:00;;;;;;;0.40;0.40;;;;;;;20.03;25.09;99591.53;4164022;34;33964;-73
2023/04/27 09:40:30;;;;;;;0.30;0.30;;;;;;;20.05;24.61;99582.59;4164843;34;35167;-74
2023/04/27 09:43:02;;;;;;;0.20;0.20;;;;;;;19.04;25.92;99577.31;4165172;34;34404;-74
2023/04/27 09:45:32;;;;;;;0.28;0.28;;;;;;;20.44;27.24;99586.12;4164944;34;34126;-73
2023/04/27 09:48:01;;;;;;;0.43;0.43;;;;;;;19.01;27.74;99590.63;4165156;34;34058;-73
2023/04/27 09:50:30;;;;;;;0.50;0.50;;;;;;;18.90;27.14;99590.19;4163875;34;35004;-74
2023/04/27 09:52:58;;;;;;;1.23;0.85;;;;;;;19.73;25.42;99570.84;4163952;34;35330;-74
2023/04/27 09:55:31;;;;;;;1.23;0.40;;;;;;;19.98;26.16;99585.62;4164984;34;33308;-73
2023/04/27 09:58:31;;;;;;;0.43;0.43;;;;;;;20.08;24.59;99590.41;4163745;34;33932;-74
2023/04/27 10:01:22;;;;;;;0.57;0.57;;;;;;;19.72;27.35;99584.94;4163777;34;34516;-73
2023/04/27 10:04:03;;;;;;;0.60;0.60;;;;;;;19.07;27.00;99578.97;4164771;34;34635;-74
2023/04/27 10:07:13;;;;;;;0.40;0.40;;;;;;;19.58;27.38;99571.50;4164893;34;33551;-74
2023/04/27 10:09:41;;;;;;;0.20;0.20;;;;;;;19.25;27.38;99572.91;4109159;34;33871;-74
2023/04/27 10:12:22;;;;;;;0.50;0.50;;;;;;;19.35;27.15;99573.34;4109197;34;34993;-73
2023/04/27 10:14:55;;;;;;;0.68;0.68;;;;;;;18.77;28.52;99564.28;4134650;34;34376;-74
2023/04/27 10:17:32;;;;;;;0.70;0.70;;;;;;;18.37;30.57;99568.53;4149913;34;33664;-74
2023/04/27 10:20:02;;;;;;;0.30;0.30;;;;;;;18.94;30.94;99568.06;4163591;34;34055;-74
2023/04/27 10:22:39;;;;;;;1.37;0.62;;;;;;;18.97;27.43;99565.31;4152664;34;35224;-73
2023/04/27 10:25:13;;;;;;;0.52;0.43;;;;;;;20.26;26.22;99566.69;4163631;34;34571;-73
2023/04/27 10:27:41;;;;;;;0.20;0.20;;;;;;;20.50;25.92;99572.56;4164521;34;33551;-74
2023/04/27 10:30:11;;;;;;;0.47;0.47;;;;;;;19.57;27.22;99569.78;4163808;34;34849;-74
2023/04/27 10:32:53;;;;;;;0.30;0.30;;;;;;;20.12;27.81;99566.44;4149966;34;34433;-75
2023/04/27 10:35:31;;;;;;;0.47;0.47;;;;;;;21.30;24.94;99567.78;4155711;34;34377;-74
2023/04/27 10:38:07;;;;;;;0.30;0.30;;;;;;;21.23;22.85;99561.09;4150740;34;34092;-73
2023/04/27 10:40:37;;;;;;;1.65;1.15;;;;;;;20.14;26.09;99557.53;4144737;34;32441;-73
2023/04/27 10:43:13;;;;;;;0.20;0.20;;;;;;;19.64;26.47;99569.47;4159120;34;35079;-73
2023/04/27 10:45:42;;;;;;;0.30;0.30;;;;;;;19.47;27.55;99578.09;4157352;34;34509;-74
2023/04/27 10:48:16;;;;;;;0.30;0.30;;;;;;;19.78;28.50;99568.00;4165750;34;33493;-72
2023/04/27 10:50:45;;;;;;;0.20;0.20;;;;;;;20.11;25.55;99573.53;4152139;34;33839;-73
2023/04/27 10:53:14;;;;;;;0.45;0.45;;;;;;;20.50;24.73;99562.00;4151772;34;34818;-73
2023/04/27 10:55:42;;;;;;;0.30;0.30;;;;;;;20.16;26.86;99562.75;4161350;34;34555;-74
2023/04/27 10:58:11;;;;;;;0.85;0.60;;;;;;;20.12;27.89;99569.97;4160543;34;33461;-74
2023/04/27 11:00:43;;;;;;;0.28;0.28;;;;;;;20.50;24.93;99572.56;4150758;34;33952;-73
2023/04/27 11:03:22;;;;;;;0.50;0.50;;;;;;;20.82;29.11;99570.19;4177982;34;35075;-74
2023/04/27 11:06:03;;;;;;;0.62;0.62;;;;;;;19.48;29.72;99566.63;4177660;34;34443;-74
2023/04/27 11:08:32;;;;;;;0.35;0.35;;;;;;;20.04;28.42;99566.81;4165923;34;34383;-74
2023/04/27 11:11:01;;;;;;;0.68;0.65;;;;;;;19.97;25.71;99562.75;4177670;34;33654;-74
2023/04/27 11:13:29;;;;;;;0.50;0.50;;;;;;;20.46;26.77;99566.56;4169549;34;35157;-74
2023/04/27 11:15:58;;;;;;;1.27;0.82;;;;;;;20.75;27.59;99558.19;4157609;34;34409;-74
2023/04/27 11:18:30;;;;;;;1.17;0.77;;;;;;;21.36;25.81;99548.94;4164457;34;33631;-74
2023/04/27 11:21:12;;;;;;;0.57;0.57;;;;;;;21.65;25.31;99563.31;4163191;34;34796;-74
2023/04/27 11:23:41;;;;;;;0.30;0.30;;;;;;;21.84;25.47;99554.41;4159059;34;35078;-74
2023/04/27 11:26:10;;;;;;;0.28;0.28;;;;;;;21.49;25.76;99559.78;4156228;34;34178;-73
2023/04/27 11:28:38;;;;;;;0.40;0.40;;;;;;;22.14;24.16;99560.69;4149431;34;33777;-74
2023/04/27 11:31:06;;;;;;;0.90;0.90;;;;;;;22.45;24.03;99552.88;4164435;34;34075;-73
2023/04/27 11:33:35;;;;;;;0.30;0.30;;;;;;;22.63;23.33;99566.87;4163857;34;35092;-74
2023/04/27 11:36:03;;;;;;;1.25;1.15;;;;;;;21.43;24.73;99560.94;4159929;34;34516;-73
2023/04/27 11:38:34;;;;;;;2.37;1.27;;;;;;;20.13;28.46;99562.88;4152445;34;163034;-74
2023/04/27 11:41:06;;;;;;;0.30;0.30;;;;;;;20.71;26.59;99554.84;4148960;34;33986;-74
2023/04/27 11:43:39;;;;;;;0.70;0.70;;;;;;;20.58;25.18;99562.50;4148531;34;35936;-74
2023/04/27 11:46:11;;;;;;;0.40;0.40;;;;;;;19.23;28.35;99561.53;4167878;34;35143;-74
2023/04/27 11:48:39;;;;;;;0.50;0.50;;;;;;;18.07;28.78;99564.44;4173543;34;32383;-75